LCLK/LCA METAR and TAF weather

Enter ICAO airport designator
Station Type Date Time Source
LCLK METAR 2020/04/06 15:30 UTC NOAA

LCLK 061530Z 23014KT 9999 FEW030 SCT060 19/13 Q1015 NOSIG


Station Type Date Time Source
LCLK Decoded METAR 2020/04/06 15:30 UTC NOAA

Larnaca Airport, Cyprus (LCLK) 34-53N 033-38E 2M
Apr 06, 2020 - 11:30 AM EDT / 2020.04.06 1530 UTC
Wind: from the SW (230 degrees) at 16 MPH (14 KT):0
Visibility: greater than 7 mile(s):0
Sky conditions: partly cloudy
Temperature: 66 F (19 C)
Dew Point: 55 F (13 C)
Relative Humidity: 68%
Pressure (altimeter): 29.97 in. Hg (1015 hPa)
ob: LCLK 061530Z 23014KT 9999 FEW030 SCT060 19/13 Q1015 NOSIG
cycle: 15

Station Type Date Time Source
LCLK TAF 2020/04/06 12:30 UTC NOAA

TAF LCLK 061130Z 0612/0712 22016KT 9999 FEW025
BECMG 0616/0619 32006KT
BECMG 0708/0711 22015KT

Example: see airport list